Time;durP1;ratioP1;P1;durP2;ratioP2;P2;SDS_P1;SDS_P2;PMS_P1;PMS_P2;Temp;Humidity;BMP_temperature;BMP_pressure;BME280_temperature;BME280_humidity;BME280_pressure;Samples;Min_cycle;Max_cycle;Signal;HPM_P1;HPM_P2
2021/10/31 00:01:53;;;;;;;90.50;29.17;;;;;;;5.45;87.27;100739.91;4991162;28;20456;-75
2021/10/31 00:04:19;;;;;;;84.72;30.67;;;;;;;5.43;87.28;100739.13;4992721;28;20054;-76
2021/10/31 00:06:45;;;;;;;97.00;29.17;;;;;;;5.41;87.21;100732.19;4991722;28;20042;-81
2021/10/31 00:09:10;;;;;;;104.60;32.40;;;;;;;5.40;87.05;100741.00;4998865;28;20042;-77
2021/10/31 00:11:37;;;;;;;97.72;28.55;;;;;;;5.34;87.26;100731.59;4997704;28;20046;-76
2021/10/31 00:14:04;;;;;;;90.40;29.77;;;;;;;5.32;87.01;100734.28;4978964;28;20042;-76
2021/10/31 00:16:30;;;;;;;100.47;30.70;;;;;;;5.32;87.04;100738.66;4998161;28;20046;-75
2021/10/31 00:18:56;;;;;;;95.65;28.33;;;;;;;5.30;87.11;100735.25;4997287;28;20125;-73
2021/10/31 00:21:22;;;;;;;84.15;27.88;;;;;;;5.27;87.60;100735.34;4998349;28;20086;-73
2021/10/31 00:23:49;;;;;;;91.13;27.23;;;;;;;5.29;86.72;100729.13;4998321;28;20077;-78
2021/10/31 00:26:15;;;;;;;92.05;27.85;;;;;;;5.24;86.87;100725.84;4997637;28;20034;-79
2021/10/31 00:28:41;;;;;;;83.20;25.27;;;;;;;5.25;87.36;100729.34;4993076;28;20515;-78
2021/10/31 00:31:07;;;;;;;86.93;25.95;;;;;;;5.23;86.77;100726.75;4978335;28;20046;-76
2021/10/31 00:33:32;;;;;;;85.43;26.73;;;;;;;5.21;86.58;100727.72;4993996;28;20050;-76
2021/10/31 00:35:58;;;;;;;86.93;25.98;;;;;;;5.20;86.51;100726.88;4959965;28;20042;-77
2021/10/31 00:38:24;;;;;;;86.75;26.98;;;;;;;5.16;86.61;100723.50;4960780;28;20054;-79
2021/10/31 00:40:51;;;;;;;86.25;26.77;;;;;;;5.16;86.72;100728.75;4966414;28;20046;-79
2021/10/31 00:43:17;;;;;;;75.35;25.25;;;;;;;5.13;86.19;100722.78;4997142;28;20054;-78
2021/10/31 00:45:43;;;;;;;82.57;24.67;;;;;;;5.10;86.08;100728.16;4979574;28;20511;-75
2021/10/31 00:48:09;;;;;;;73.00;24.33;;;;;;;5.09;86.50;100715.94;4966156;28;20043;-77
2021/10/31 00:50:36;;;;;;;81.88;24.80;;;;;;;5.04;85.95;100710.84;4978563;28;20488;-79
2021/10/31 00:53:03;;;;;;;85.78;27.33;;;;;;;5.05;85.83;100709.06;4962067;28;20117;-75
2021/10/31 00:55:29;;;;;;;78.57;25.05;;;;;;;5.01;86.29;100708.38;4977011;28;20108;-76
2021/10/31 00:57:55;;;;;;;81.55;23.38;;;;;;;5.01;86.79;100701.34;4996799;28;20103;-80
2021/10/31 01:00:21;;;;;;;74.00;23.27;;;;;;;5.02;85.97;100699.56;4979549;28;20038;-77
2021/10/31 01:02:47;;;;;;;78.03;23.27;;;;;;;5.03;85.99;100698.66;4964446;28;20053;-78
2021/10/31 01:05:16;;;;;;;72.28;22.52;;;;;;;5.01;85.91;100693.47;4978756;28;20045;-77
2021/10/31 01:08:18;;;;;;;66.40;23.30;;;;;;;5.04;85.60;100700.38;4961906;28;20499;-78
2021/10/31 01:10:56;;;;;;;67.22;21.38;;;;;;;5.02;85.68;100695.19;4980227;28;20082;-79
2021/10/31 01:13:41;;;;;;;65.50;21.77;;;;;;;4.98;85.22;100684.88;4977240;28;20089;-76
2021/10/31 01:16:34;;;;;;;63.20;21.60;;;;;;;4.93;85.21;100685.03;4959998;28;20188;-77
2021/10/31 01:19:31;;;;;;;66.63;21.45;;;;;;;4.94;85.38;100692.00;4976878;28;20534;-77
2021/10/31 01:22:15;;;;;;;64.88;22.05;;;;;;;4.91;84.86;100686.88;4976911;28;20424;-79
2021/10/31 01:24:58;;;;;;;58.28;21.08;;;;;;;4.88;85.19;100686.97;4949672;29;20062;-77
2021/10/31 01:27:30;;;;;;;54.97;19.67;;;;;;;4.86;85.37;100683.56;4957540;28;20043;-78
2021/10/31 01:30:13;;;;;;;57.45;20.42;;;;;;;4.85;85.26;100681.88;4940037;29;20105;-75
2021/10/31 01:32:59;;;;;;;59.20;20.73;;;;;;;4.83;85.36;100683.66;4975757;28;20046;-78
2021/10/31 01:35:55;;;;;;;61.15;21.40;;;;;;;4.81;85.07;100683.75;4958928;28;20047;-78
2021/10/31 01:38:46;;;;;;;57.38;19.50;;;;;;;4.77;84.96;100674.28;4957231;28;20046;-76
2021/10/31 01:41:30;;;;;;;59.40;21.80;;;;;;;4.70;84.78;100671.00;4945003;29;20190;-77
2021/10/31 01:44:06;;;;;;;59.58;19.83;;;;;;;4.69;85.19;100671.94;4956421;28;20042;-77
2021/10/31 01:46:53;;;;;;;60.97;22.23;;;;;;;4.68;85.22;100670.22;4939638;29;20156;-78
2021/10/31 01:49:29;;;;;;;63.33;21.45;;;;;;;4.67;84.78;100668.53;4957303;28;20508;-76
2021/10/31 01:51:58;;;;;;;57.05;19.92;;;;;;;4.63;84.75;100666.06;4955936;28;20035;-75
2021/10/31 01:54:35;;;;;;;69.25;23.10;;;;;;;4.58;85.37;100668.84;4956636;28;20118;-78
2021/10/31 01:57:06;;;;;;;63.25;21.52;;;;;;;4.56;85.15;100660.19;4923207;29;20134;-77
2021/10/31 01:59:38;;;;;;;62.67;19.15;;;;;;;4.56;85.30;100659.31;4936693;29;20043;-76
2021/10/31 02:02:06;;;;;;;58.60;19.63;;;;;;;4.53;85.02;100670.78;4954885;28;20047;-74
2021/10/31 02:04:34;;;;;;;61.17;19.33;;;;;;;4.54;85.42;100656.78;4921024;29;20058;-76
2021/10/31 02:07:00;;;;;;;55.03;18.63;;;;;;;4.52;85.57;100663.81;4919234;29;20039;-77
2021/10/31 02:09:29;;;;;;;61.85;19.48;;;;;;;4.51;85.11;100662.09;4961024;28;20047;-77
2021/10/31 02:11:56;;;;;;;57.20;19.70;;;;;;;4.51;85.07;100662.97;4973858;28;20038;-75
2021/10/31 02:14:22;;;;;;;64.68;21.23;;;;;;;4.50;85.20;100660.41;4956614;28;20047;-79
2021/10/31 02:16:48;;;;;;;65.25;20.52;;;;;;;4.45;85.42;100659.69;4974136;28;20484;-76
2021/10/31 02:19:22;;;;;;;64.47;19.67;;;;;;;4.46;84.99;100661.41;4973862;28;20039;-76
2021/10/31 02:22:00;;;;;;;56.28;19.20;;;;;;;4.45;84.92;100657.09;4974650;28;20115;-76
2021/10/31 02:24:26;;;;;;;51.47;19.48;;;;;;;4.44;84.93;100660.63;4993835;28;20044;-77
2021/10/31 02:26:53;;;;;;;57.50;18.20;;;;;;;4.43;85.22;100661.53;4976344;28;20133;-75
2021/10/31 02:29:19;;;;;;;49.20;18.55;;;;;;;4.42;85.05;100657.22;4974531;28;20431;-75
2021/10/31 02:31:45;;;;;;;63.17;18.95;;;;;;;4.42;84.78;100662.44;4973134;28;20488;-76
2021/10/31 02:34:11;;;;;;;56.28;19.55;;;;;;;4.44;85.03;100658.03;4957835;28;20428;-78
2021/10/31 02:36:38;;;;;;;56.50;18.58;;;;;;;4.47;85.07;100655.28;4957130;28;20042;-75
2021/10/31 02:39:05;;;;;;;59.10;18.52;;;;;;;4.45;84.74;100651.84;4956085;28;20568;-76
2021/10/31 02:41:33;;;;;;;61.60;19.95;;;;;;;4.45;84.85;100657.09;4978936;28;20114;-78
2021/10/31 02:43:59;;;;;;;56.95;19.35;;;;;;;4.44;84.81;100645.78;4956465;28;20061;-76
2021/10/31 02:46:35;;;;;;;53.95;19.70;;;;;;;4.42;85.04;100652.81;4956315;28;20050;-78
2021/10/31 02:49:02;;;;;;;63.08;18.83;;;;;;;4.41;85.23;100645.91;4990770;28;20569;-79
2021/10/31 02:52:01;;;;;;;59.08;20.02;;;;;;;4.40;84.87;100645.94;4973909;28;20042;-76
2021/10/31 02:54:48;;;;;;;72.20;23.20;;;;;;;4.40;84.75;100653.78;4974098;28;20043;-76
2021/10/31 02:57:26;;;;;;;63.47;18.48;;;;;;;4.38;85.18;100652.06;4973246;28;20137;-76
2021/10/31 02:59:53;;;;;;;;;;;;;;;4.36;85.08;100651.28;4956387;28;20408;-73
2021/10/31 03:02:19;;;;;;;56.53;17.50;;;;;;;4.31;85.25;100653.22;4955802;28;20025;-76
2021/10/31 03:04:45;;;;;;;70.40;19.25;;;;;;;4.30;85.48;100641.03;4956344;28;20137;-75
2021/10/31 03:07:12;;;;;;;82.85;21.30;;;;;;;4.27;85.35;100651.59;4964450;28;20046;-73
2021/10/31 03:09:38;;;;;;;67.80;18.58;;;;;;;4.27;85.31;100642.91;4973622;28;20463;-76
2021/10/31 03:12:06;;;;;;;79.28;21.30;;;;;;;4.25;85.12;100645.56;4992062;28;20038;-74
2021/10/31 03:14:32;;;;;;;82.32;21.05;;;;;;;4.24;85.25;100643.84;4992176;28;20605;-74
2021/10/31 03:16:58;;;;;;;85.70;21.15;;;;;;;4.27;85.25;100646.34;4974891;28;20499;-75
2021/10/31 03:19:24;;;;;;;59.40;18.83;;;;;;;4.25;85.09;100642.97;4992051;28;20096;-76
2021/10/31 03:21:49;;;;;;;59.08;18.92;;;;;;;4.25;84.84;100640.34;4990889;28;20054;-77
2021/10/31 03:24:15;;;;;;;49.83;17.80;;;;;;;4.28;84.83;100639.38;4992333;28;20050;-79
2021/10/31 03:26:41;;;;;;;58.90;17.45;;;;;;;4.28;84.61;100632.34;4990514;28;20046;-77
2021/10/31 03:29:07;;;;;;;53.08;17.42;;;;;;;4.27;84.87;100619.31;4939477;28;20448;-77
2021/10/31 03:31:33;;;;;;;52.95;17.33;;;;;;;4.27;84.51;100628.03;4992673;28;20045;-77
2021/10/31 03:33:59;;;;;;;47.28;18.20;;;;;;;4.26;84.79;100628.09;4990014;28;20042;-76
2021/10/31 03:36:24;;;;;;;49.33;17.77;;;;;;;4.20;84.30;100618.69;4973539;28;20070;-76
2021/10/31 03:38:50;;;;;;;55.25;17.77;;;;;;;4.17;84.96;100624.03;4973026;28;20050;-75
2021/10/31 03:41:16;;;;;;;52.53;18.60;;;;;;;4.13;85.04;100620.66;4971210;28;20058;-77
2021/10/31 03:43:42;;;;;;;54.10;17.63;;;;;;;4.11;85.05;100617.25;4972703;28;20046;-75
2021/10/31 03:46:08;;;;;;;49.05;17.77;;;;;;;4.09;84.76;100623.44;4989540;28;20070;-75
2021/10/31 03:48:52;;;;;;;58.17;19.83;;;;;;;4.05;84.54;100618.31;4990433;28;20043;-73
2021/10/31 03:51:18;;;;;;;59.63;19.92;;;;;;;4.00;84.74;100620.25;4975367;28;20995;-81
2021/10/31 03:53:44;;;;;;;55.78;18.52;;;;;;;4.00;84.77;100606.28;4959271;28;20049;-75
2021/10/31 03:56:10;;;;;;;52.47;17.73;;;;;;;3.98;85.11;100608.13;4975580;28;20102;-75
2021/10/31 03:58:36;;;;;;;50.30;17.73;;;;;;;3.93;84.63;100605.66;4973707;28;20508;-75
2021/10/31 04:01:01;;;;;;;49.45;17.30;;;;;;;3.91;84.49;100604.84;4955919;28;20050;-76
2021/10/31 04:03:27;;;;;;;60.63;19.13;;;;;;;3.87;84.33;100609.31;4956941;28;20080;-77
2021/10/31 04:05:53;;;;;;;57.60;21.25;;;;;;;3.84;84.39;100603.38;4972778;28;20078;-77
2021/10/31 04:08:19;;;;;;;50.60;18.05;;;;;;;3.80;84.74;100605.22;4972501;28;20042;-77
2021/10/31 04:10:45;;;;;;;54.17;18.15;;;;;;;3.81;84.85;100608.69;4973106;28;20404;-78
2021/10/31 04:13:11;;;;;;;51.40;18.90;;;;;;;3.79;84.69;100607.88;4982223;28;20038;-80
2021/10/31 04:15:37;;;;;;;60.13;19.10;;;;;;;3.77;84.59;100601.84;4959866;28;20447;-80
2021/10/31 04:18:03;;;;;;;52.88;19.02;;;;;;;3.75;84.78;100598.44;4939536;28;20043;-77
2021/10/31 04:20:29;;;;;;;59.33;20.27;;;;;;;3.77;84.80;100601.84;4986915;28;20046;-75
2021/10/31 04:22:55;;;;;;;49.15;17.27;;;;;;;3.76;84.59;100589.69;4992507;28;20503;-76
2021/10/31 04:25:21;;;;;;;55.20;18.52;;;;;;;3.76;84.42;100602.75;4992187;28;20054;-80
2021/10/31 04:27:47;;;;;;;79.00;20.10;;;;;;;3.75;84.42;100599.31;4958933;28;20038;-76
2021/10/31 04:30:13;;;;;;;56.92;18.95;;;;;;;3.72;84.39;100597.63;4975006;28;20042;-78
2021/10/31 04:32:39;;;;;;;53.60;19.17;;;;;;;3.71;84.41;100589.81;4989371;28;20522;-78
2021/10/31 04:35:06;;;;;;;54.40;18.73;;;;;;;3.73;84.29;100593.25;4961834;28;20074;-77
2021/10/31 04:37:36;;;;;;;55.97;18.50;;;;;;;3.72;84.20;100600.22;4991633;28;20058;-81
2021/10/31 04:40:06;;;;;;;62.97;21.20;;;;;;;3.74;84.20;100600.19;4957170;28;20091;-78
2021/10/31 04:42:32;;;;;;;52.08;18.15;;;;;;;3.79;83.98;100600.03;4955251;28;20043;-80
2021/10/31 04:44:58;;;;;;;50.47;18.38;;;;;;;4.05;83.32;100594.75;4957769;28;20078;-83
2021/10/31 04:47:25;;;;;;;53.55;18.73;;;;;;;4.46;82.25;100590.69;4956081;28;20035;-79
2021/10/31 04:49:51;;;;;;;53.75;16.75;;;;;;;4.80;81.18;100592.06;4982046;28;20038;-77
2021/10/31 04:52:16;;;;;;;50.45;17.30;;;;;;;5.19;79.56;100596.66;4958431;28;20396;-82
2021/10/31 04:54:42;;;;;;;49.20;16.33;;;;;;;5.52;77.38;100593.59;4980507;28;20226;-80
2021/10/31 04:57:08;;;;;;;44.17;16.20;;;;;;;5.80;76.21;100595.91;4928219;28;20058;-78
2021/10/31 04:59:34;;;;;;;47.10;15.27;;;;;;;6.18;74.45;100586.47;4943863;28;20067;-79
2021/10/31 05:02:00;;;;;;;43.85;15.48;;;;;;;6.47;72.68;100595.69;4950691;28;20147;-82
2021/10/31 05:04:26;;;;;;;47.53;15.10;;;;;;;6.80;71.37;100595.06;4976086;28;20049;-84
2021/10/31 05:06:52;;;;;;;55.20;18.02;;;;;;;7.11;70.32;100591.00;4944690;28;20049;-77
2021/10/31 05:09:18;;;;;;;43.15;14.88;;;;;;;7.38;68.82;100586.16;4977574;28;20074;-79
2021/10/31 05:11:44;;;;;;;42.38;14.32;;;;;;;7.68;68.19;100587.38;4961917;28;20042;-83
2021/10/31 05:14:10;;;;;;;39.60;15.40;;;;;;;7.84;66.77;100583.03;4978352;28;20101;-80
2021/10/31 05:16:37;;;;;;;40.67;13.80;;;;;;;8.33;65.42;100589.31;4983645;28;20077;-82
2021/10/31 05:19:07;;;;;;;33.78;14.32;;;;;;;8.53;63.57;100586.47;4963962;28;20046;-79
2021/10/31 05:21:33;;;;;;;42.33;15.00;;;;;;;8.83;63.36;100591.00;4977730;28;20558;-78
2021/10/31 05:23:59;;;;;;;46.90;14.82;;;;;;;9.07;62.22;100582.66;4958606;28;20042;-80
2021/10/31 05:26:26;;;;;;;36.45;14.70;;;;;;;9.46;61.33;100585.75;4942538;28;20121;-76
2021/10/31 05:28:52;;;;;;;39.75;17.55;;;;;;;9.64;60.27;100579.41;4963144;28;20049;-80
2021/10/31 05:31:18;;;;;;;36.92;14.32;;;;;;;9.78;59.62;100578.63;4958355;28;20062;-78
2021/10/31 05:33:45;;;;;;;39.83;15.63;;;;;;;9.70;59.19;100578.22;4959030;28;20077;-82
2021/10/31 05:36:11;;;;;;;42.65;15.75;;;;;;;9.67;58.96;100575.72;4956931;28;20057;-79
2021/10/31 05:38:37;;;;;;;40.47;15.30;;;;;;;9.52;59.38;100575.72;4942816;28;20043;-80
2021/10/31 05:41:03;;;;;;;42.50;15.80;;;;;;;9.58;58.78;100586.84;4978977;28;20499;-80
2021/10/31 05:43:30;;;;;;;38.10;15.05;;;;;;;9.81;59.00;100585.50;4956712;28;20108;-76
2021/10/31 05:45:59;;;;;;;41.78;16.23;;;;;;;10.24;57.34;100572.34;4975606;28;20042;-77
2021/10/31 05:48:25;;;;;;;33.80;14.95;;;;;;;10.65;56.38;100576.03;4957121;28;20035;-79
2021/10/31 05:50:55;;;;;;;38.00;15.68;;;;;;;11.07;55.33;100571.59;4975572;28;20046;-80
2021/10/31 05:53:22;;;;;;;39.45;15.68;;;;;;;11.07;54.48;100570.75;4974833;28;20404;-81
2021/10/31 05:55:48;;;;;;;37.65;15.30;;;;;;;11.22;53.89;100566.28;4923581;28;20054;-81
2021/10/31 05:58:14;;;;;;;39.33;15.13;;;;;;;11.79;53.24;100563.31;4974995;28;20039;-83
2021/10/31 06:00:39;;;;;;;40.05;15.02;;;;;;;11.86;52.61;100571.69;4977997;28;20047;-80
2021/10/31 06:03:05;;;;;;;40.38;16.05;;;;;;;12.20;51.59;100565.91;4971866;28;20535;-77
2021/10/31 06:05:31;;;;;;;36.42;15.32;;;;;;;12.56;51.14;100559.84;4973306;28;20039;-79
2021/10/31 06:07:57;;;;;;;41.53;15.77;;;;;;;12.70;50.01;100556.19;4973300;28;20043;-84
2021/10/31 06:10:23;;;;;;;34.50;15.18;;;;;;;12.77;50.43;100553.91;4956262;28;20109;-80
2021/10/31 06:12:49;;;;;;;35.78;15.30;;;;;;;12.86;49.38;100553.28;4973094;28;20089;-81
2021/10/31 06:15:17;;;;;;;38.78;16.65;;;;;;;13.02;48.88;100560.09;4961784;28;20056;-78
2021/10/31 06:17:43;;;;;;;39.50;15.48;;;;;;;13.17;48.30;100552.81;4956764;28;20469;-82
2021/10/31 06:20:12;;;;;;;37.88;15.65;;;;;;;13.32;47.57;100551.69;4939122;28;20146;-82
2021/10/31 06:22:38;;;;;;;37.50;15.43;;;;;;;13.06;48.07;100549.16;4958108;28;20798;-80
2021/10/31 06:25:06;;;;;;;39.35;16.52;;;;;;;13.53;47.15;100556.38;4926385;28;20050;-82
2021/10/31 06:27:32;;;;;;;39.03;15.55;;;;;;;13.68;46.60;100555.25;4974745;28;20439;-79
2021/10/31 06:29:59;;;;;;;42.03;16.88;;;;;;;14.00;46.34;100554.56;4962102;28;20051;-80
2021/10/31 06:32:25;;;;;;;48.15;17.58;;;;;;;13.79;46.39;100553.56;4978293;28;20062;-80
2021/10/31 06:34:51;;;;;;;51.55;17.98;;;;;;;13.68;46.33;100552.59;4961512;28;20050;-82
2021/10/31 06:37:17;;;;;;;53.13;19.52;;;;;;;13.47;46.57;100556.84;4964621;28;20054;-84
2021/10/31 06:39:44;;;;;;;52.63;18.77;;;;;;;13.45;46.56;100554.31;4922577;28;20051;-81
2021/10/31 06:42:10;;;;;;;58.92;19.48;;;;;;;13.98;46.17;100553.84;4949010;28;20035;-82
2021/10/31 06:44:36;;;;;;;50.00;18.45;;;;;;;14.16;45.35;100553.38;4944534;28;20039;-78
2021/10/31 06:47:02;;;;;;;51.08;18.70;;;;;;;13.67;45.73;100558.84;4930920;28;20039;-81
2021/10/31 06:49:29;;;;;;;51.30;18.85;;;;;;;13.95;45.61;100561.22;4954486;28;20038;-81
2021/10/31 06:51:56;;;;;;;47.72;18.17;;;;;;;13.72;45.46;100559.34;4927747;28;20362;-83
2021/10/31 06:54:22;;;;;;;63.85;20.52;;;;;;;13.52;45.87;100570.63;4961471;28;20934;-81
2021/10/31 06:56:48;;;;;;;56.58;20.15;;;;;;;14.22;44.88;100575.03;4971788;28;20046;-81
2021/10/31 06:59:14;;;;;;;53.83;18.38;;;;;;;14.31;44.73;100572.63;4958021;28;20043;-83
2021/10/31 07:01:39;;;;;;;55.25;19.38;;;;;;;14.42;44.32;100585.06;4922646;28;20523;-82
2021/10/31 07:04:07;;;;;;;53.03;19.77;;;;;;;14.46;44.36;100581.22;4961428;28;20197;-85
2021/10/31 07:06:34;;;;;;;;;;;;;;;14.35;44.02;100585.53;4928505;28;20065;-85
2021/10/31 07:09:02;;;;;;;54.90;18.17;;;;;;;14.39;44.44;100581.69;4928527;28;19922;-85
2021/10/31 07:11:28;;;;;;;43.33;19.02;;;;;;;14.20;44.22;100584.09;4871667;29;20561;-82
2021/10/31 07:13:58;;;;;;;39.17;16.85;;;;;;;14.10;44.71;100583.13;4889837;29;20059;-84
2021/10/31 07:16:24;;;;;;;38.95;16.73;;;;;;;14.42;44.02;100582.41;4884968;29;20100;-85
2021/10/31 07:18:52;;;;;;;30.23;15.48;;;;;;;14.49;43.51;100581.81;4913182;29;20485;-80
2021/10/31 07:21:21;;;;;;;52.30;23.38;;;;;;;14.46;43.42;100583.88;4898424;29;20080;-86
2021/10/31 07:23:48;;;;;;;40.40;19.27;;;;;;;13.95;43.89;100588.66;4882712;29;20122;-86
2021/10/31 07:26:14;;;;;;;37.45;17.52;;;;;;;13.79;44.52;100585.47;4906973;29;20544;-82
2021/10/31 07:28:40;;;;;;;34.75;15.68;;;;;;;13.75;44.52;100593.66;4870944;29;20507;-80
2021/10/31 07:31:08;;;;;;;36.50;18.98;;;;;;;14.28;43.57;100600.31;4909762;29;20152;-80
2021/10/31 07:33:34;;;;;;;34.15;17.15;;;;;;;14.29;43.41;100594.00;4928359;29;20050;-82
2021/10/31 07:36:00;;;;;;;31.17;15.32;;;;;;;13.94;43.80;100594.94;4901697;29;20060;-80
2021/10/31 07:38:27;;;;;;;36.38;17.35;;;;;;;13.57;44.77;100585.28;4903365;29;20047;-83
2021/10/31 07:40:53;;;;;;;36.10;15.95;;;;;;;13.33;45.38;100589.72;4922221;29;20111;-86
2021/10/31 07:43:19;;;;;;;30.33;14.18;;;;;;;14.71;43.79;100586.28;4906830;29;20071;-87
2021/10/31 07:45:47;;;;;;;32.92;14.48;;;;;;;13.87;44.18;100583.09;4903275;29;20478;-87
2021/10/31 07:48:13;;;;;;;;;;;;;;;12.51;46.48;100595.59;4913691;29;20069;-86
2021/10/31 07:50:41;;;;;;;34.40;15.63;;;;;;;12.08;48.11;100596.78;4926425;29;19918;-82
2021/10/31 07:53:10;;;;;;;39.05;16.25;;;;;;;11.69;48.80;100599.34;4923304;29;20579;-81
2021/10/31 07:55:38;;;;;;;47.67;17.50;;;;;;;11.05;50.29;100602.59;4939721;29;20049;-82
2021/10/31 07:58:07;;;;;;;37.42;16.27;;;;;;;10.73;51.60;100604.66;4919465;29;20159;-81
2021/10/31 08:00:39;;;;;;;38.70;16.10;;;;;;;10.80;51.56;100609.50;4904163;29;20466;-83
2021/10/31 08:03:12;;;;;;;32.35;13.18;;;;;;;10.20;52.66;100606.06;4905051;29;20051;-86
2021/10/31 08:05:38;;;;;;;32.53;13.75;;;;;;;9.44;54.86;100609.63;4920630;29;20525;-84
2021/10/31 08:08:05;;;;;;;32.38;13.05;;;;;;;9.23;56.08;100602.00;4889148;29;20043;-85
2021/10/31 08:10:32;;;;;;;36.05;13.18;;;;;;;9.03;56.62;100602.25;4904329;29;20506;-81
2021/10/31 08:12:58;;;;;;;33.55;13.93;;;;;;;8.64;58.08;100606.16;4938221;29;20044;-83
2021/10/31 08:15:24;;;;;;;31.85;13.45;;;;;;;8.53;58.58;100606.72;4904741;29;20091;-85
2021/10/31 08:17:50;;;;;;;31.92;13.65;;;;;;;8.55;58.35;100600.44;4888545;29;20058;-81
2021/10/31 08:20:16;;;;;;;31.73;13.77;;;;;;;8.35;59.58;100592.69;4921147;29;20378;-86
2021/10/31 08:22:42;;;;;;;33.45;13.77;;;;;;;8.07;60.08;100600.28;4888369;29;20100;-81
2021/10/31 08:25:09;;;;;;;32.45;13.43;;;;;;;8.15;60.13;100594.63;4897107;29;20472;-86
2021/10/31 08:27:39;;;;;;;38.10;13.00;;;;;;;8.10;61.06;100591.38;4948326;28;20051;-84
2021/10/31 08:30:07;;;;;;;31.85;12.93;;;;;;;8.24;60.24;100596.75;4915710;29;20058;-84
2021/10/31 08:32:42;;;;;;;41.40;13.40;;;;;;;7.93;60.72;100595.69;4926258;29;20138;-81
2021/10/31 08:35:08;;;;;;;41.97;13.40;;;;;;;7.81;61.40;100598.13;4912697;28;20047;-82
2021/10/31 08:37:34;;;;;;;32.70;12.70;;;;;;;7.81;61.69;100606.84;4932244;28;20039;-83
2021/10/31 08:40:00;;;;;;;34.70;12.77;;;;;;;7.68;62.18;100604.00;4933435;28;20066;-81
2021/10/31 08:42:28;;;;;;;34.30;12.93;;;;;;;7.64;62.18;100606.84;4932211;28;20049;-82
2021/10/31 08:44:56;;;;;;;31.70;12.50;;;;;;;7.42;62.98;100602.66;4963614;28;20093;-81
2021/10/31 08:47:22;;;;;;;33.15;12.23;;;;;;;7.32;63.49;100606.69;4938635;28;20041;-82
2021/10/31 08:49:49;;;;;;;35.85;13.65;;;;;;;7.43;63.46;100599.09;4923814;28;20034;-81
2021/10/31 08:52:14;;;;;;;36.42;13.57;;;;;;;7.47;63.50;100602.44;4953085;28;20100;-85
2021/10/31 08:54:41;;;;;;;36.20;13.40;;;;;;;7.67;63.01;100609.34;4947672;28;20045;-80
2021/10/31 08:57:07;;;;;;;33.90;12.88;;;;;;;8.31;61.36;100607.84;4947740;28;20043;-82
2021/10/31 08:59:34;;;;;;;37.17;12.80;;;;;;;8.67;60.24;100605.97;4930364;28;20408;-84
2021/10/31 09:02:02;;;;;;;32.55;13.45;;;;;;;8.43;60.62;100612.44;4921294;28;20038;-84
2021/10/31 09:04:29;;;;;;;35.53;13.75;;;;;;;8.25;60.87;100593.19;4916571;28;20105;-85
2021/10/31 09:07:00;;;;;;;31.60;13.23;;;;;;;8.09;60.92;100592.28;4943946;28;20053;-86
2021/10/31 09:09:28;;;;;;;36.95;15.18;;;;;;;7.96;61.46;100607.03;4894945;29;20055;-82
2021/10/31 09:11:57;;;;;;;40.53;14.95;;;;;;;7.57;62.79;100603.69;4885004;29;20043;-85
2021/10/31 09:14:42;;;;;;;45.60;17.50;;;;;;;7.37;63.45;100596.78;4890004;29;20190;-88
2021/10/31 09:17:09;;;;;;;38.80;14.68;;;;;;;7.17;63.59;100601.22;4881364;29;20084;-82
2021/10/31 09:19:36;;;;;;;36.40;13.15;;;;;;;7.20;63.78;100592.31;4878636;29;20064;-87
2021/10/31 09:22:03;;;;;;;39.13;14.65;;;;;;;7.21;63.53;100592.25;4909351;29;20044;-82
2021/10/31 09:24:32;;;;;;;36.65;13.57;;;;;;;7.19;63.53;100594.13;4892384;29;20173;-87
2021/10/31 09:27:00;;;;;;;44.17;16.08;;;;;;;7.31;64.21;100582.13;4911402;29;20042;-84
2021/10/31 09:29:29;;;;;;;43.15;15.45;;;;;;;7.87;62.67;100588.13;4944239;29;20111;-84
2021/10/31 09:31:55;;;;;;;49.75;17.10;;;;;;;7.97;61.82;100582.38;4912790;29;20131;-84
2021/10/31 09:34:57;;;;;;;42.33;15.93;;;;;;;7.89;62.21;100588.91;4876787;29;20506;-83
2021/10/31 09:38:08;;;;;;;44.80;15.40;;;;;;;8.02;61.89;100580.38;4801597;29;20425;-85
2021/10/31 09:42:14;;;;;;;44.10;16.13;;;;;;;9.79;57.03;100575.00;4845861;29;20034;-81
2021/10/31 09:45:30;;;;;;;;;;;;;;;;;;;;;
2021/10/31 09:48:22;;;;;;;35.13;12.80;;;;;;;11.06;53.05;100574.34;4821056;29;20174;-84
2021/10/31 09:51:20;;;;;;;32.88;13.93;;;;;;;11.81;51.03;100566.72;4787740;29;20549;-81
2021/10/31 09:54:07;;;;;;;40.08;14.60;;;;;;;11.96;50.36;100574.59;4781147;29;20076;-82
2021/10/31 09:56:37;;;;;;;;;;;;;;;12.00;50.20;100570.81;4750675;30;20051;-82
2021/10/31 09:59:41;;;;;;;45.67;15.15;;;;;;;12.76;49.15;100570.81;4791871;29;19921;-81
2021/10/31 10:03:04;;;;;;;31.98;12.95;;;;;;;13.22;47.56;100563.94;4827467;29;20035;-87
2021/10/31 10:05:46;;;;;;;;;;;;;;;;;;;;;
2021/10/31 10:12:41;;;;;;;;;;;;;;;;;;;;;
2021/10/31 10:16:29;;;;;;;32.08;12.98;;;;;;;12.60;46.65;100558.66;4859287;29;20066;-83
2021/10/31 10:19:00;;;;;;;50.15;18.15;;;;;;;12.92;46.40;100557.28;4904445;29;20147;-84
2021/10/31 10:21:33;;;;;;;56.65;19.27;;;;;;;13.37;45.36;100546.91;4911774;29;20043;-85
2021/10/31 10:24:10;;;;;;;41.80;16.40;;;;;;;13.52;45.08;100544.91;4929983;29;20564;-83
2021/10/31 10:26:42;;;;;;;42.53;16.58;;;;;;;13.70;44.40;100550.63;4911430;29;20051;-81
2021/10/31 10:29:25;;;;;;;36.47;14.70;;;;;;;13.14;45.14;100553.06;4943734;29;20047;-83
2021/10/31 10:32:00;;;;;;;38.25;14.02;;;;;;;13.14;45.48;100545.94;4927349;29;20059;-85
2021/10/31 10:34:50;;;;;;;26.13;11.60;;;;;;;12.69;45.58;100551.81;4928359;29;20060;-83
2021/10/31 10:37:33;;;;;;;;;;;;;;;12.91;45.94;100543.16;4927165;29;20119;-87
2021/10/31 10:40:03;;;;;;;34.08;12.55;;;;;;;12.71;46.25;100544.63;4897067;29;19926;-82
2021/10/31 10:42:56;;;;;;;40.65;16.85;;;;;;;12.72;46.71;100543.66;4904321;29;20058;-86
2021/10/31 10:45:29;;;;;;;40.33;15.93;;;;;;;12.83;46.04;100528.75;4922939;29;20548;-85
2021/10/31 10:48:32;;;;;;;42.70;17.80;;;;;;;12.51;46.37;100524.81;4891465;29;20444;-87
2021/10/31 10:51:29;;;;;;;44.15;16.08;;;;;;;12.18;47.05;100518.28;4912159;29;20044;-86
2021/10/31 10:54:15;;;;;;;32.67;12.77;;;;;;;11.81;47.87;100518.16;4903460;29;20055;-83
2021/10/31 10:57:07;;;;;;;22.55;10.52;;;;;;;11.56;48.30;100503.94;4931501;29;20035;-87
2021/10/31 10:59:37;;;;;;;39.08;15.63;;;;;;;11.44;48.75;100489.72;4929082;29;20054;-82
2021/10/31 11:02:27;;;;;;;29.13;11.50;;;;;;;11.35;49.39;100498.28;4958562;28;20560;-87
2021/10/31 11:05:01;;;;;;;33.15;14.20;;;;;;;11.03;49.53;100496.00;4925719;29;20071;-84
2021/10/31 11:07:46;;;;;;;30.33;11.50;;;;;;;10.57;50.60;100496.34;4943041;29;20045;-84
2021/10/31 11:10:29;;;;;;;27.40;11.63;;;;;;;10.73;50.94;100502.34;4922896;28;20046;-86
2021/10/31 11:13:00;;;;;;;28.58;9.45;;;;;;;10.51;51.38;100493.09;4937989;28;20065;-86
2021/10/31 11:15:30;;;;;;;25.73;11.02;;;;;;;10.57;51.18;100493.69;4962885;28;20113;-87
2021/10/31 11:17:59;;;;;;;25.90;10.35;;;;;;;10.41;51.59;100491.16;4929012;28;20034;-86
2021/10/31 11:20:51;;;;;;;18.45;9.35;;;;;;;10.43;51.43;100476.03;4932262;29;20086;-85
2021/10/31 11:23:23;;;;;;;22.52;9.90;;;;;;;10.09;52.08;100486.06;4894415;29;20051;-86
2021/10/31 11:25:51;;;;;;;23.05;9.68;;;;;;;9.88;52.55;100487.28;4910688;29;20055;-87
2021/10/31 11:29:11;;;;;;;24.33;10.15;;;;;;;9.82;53.07;100476.22;4899147;29;20047;-85
2021/10/31 11:31:46;;;;;;;27.35;10.75;;;;;;;9.83;53.19;100473.50;4893953;29;20080;-85
2021/10/31 11:34:46;;;;;;;23.48;9.75;;;;;;;9.65;53.26;100475.47;4861688;29;20063;-85
2021/10/31 11:37:43;;;;;;;27.35;10.38;;;;;;;9.81;53.39;100475.38;4801539;29;20114;-83
2021/10/31 11:41:16;;;;;;;27.75;10.65;;;;;;;9.80;53.20;100478.97;4819534;29;20046;-84
2021/10/31 11:43:55;;;;;;;33.83;12.55;;;;;;;9.77;53.29;100484.44;4784519;29;20400;-85
2021/10/31 11:46:44;;;;;;;29.88;11.30;;;;;;;9.47;54.42;100477.44;4788560;29;20054;-86